Wardwell, Mississippi
Current Conditions -  °F | °C
As of 3:53 PM on Saturday 25 Oct 2014 (Local Time) from KTUP Reporting Station
Clear Clear  
Wind Chill: 80°   Ceiling: Unl
Heat Index: 81°   Visibility: 10mi
Dew Point: 61°   Wind: 5mph
Humidity: 52%   Direction: 320°NW
Pressure: 30.03"   Gusts: NA
Location:  33.9472°N, 89.1968°W
Report Text: KTUP 252053Z 32004KT 10SM CLR 27/16 A3003 RMK AO2 SLP168 T02670161 56015 $
Loading
Personal Weather Stations






























Interactive Weather Map
Tropical Storm Tracking
New forecast layout! Learn more

10-Day Weather Forecast

Advertisements
Track Severe Weather on mobile